sensor_id;sensor_type;location;lat;lon;timestamp;P1;durP1;ratioP1;P2;durP2;ratioP2
16735;SDS011;17990;49.548;9.730;2022-10-03T00:01:36;30.10;;;12.90;;
16735;SDS011;17990;49.548;9.730;2022-10-03T00:04:42;31.67;;;13.63;;
16735;SDS011;17990;49.548;9.730;2022-10-03T00:07:43;35.07;;;12.70;;
16735;SDS011;17990;49.548;9.730;2022-10-03T00:10:32;34.03;;;12.03;;
16735;SDS011;17990;49.548;9.730;2022-10-03T00:13:17;30.60;;;12.97;;
16735;SDS011;17990;49.548;9.730;2022-10-03T00:15:52;30.60;;;11.73;;
16735;SDS011;17990;49.548;9.730;2022-10-03T00:18:32;35.30;;;12.57;;
16735;SDS011;17990;49.548;9.730;2022-10-03T00:21:14;33.87;;;12.13;;
16735;SDS011;17990;49.548;9.730;2022-10-03T00:24:01;31.37;;;11.70;;
16735;SDS011;17990;49.548;9.730;2022-10-03T00:26:40;29.37;;;12.33;;
16735;SDS011;17990;49.548;9.730;2022-10-03T00:29:18;34.53;;;13.00;;
16735;SDS011;17990;49.548;9.730;2022-10-03T00:32:04;30.97;;;12.67;;
16735;SDS011;17990;49.548;9.730;2022-10-03T00:34:53;28.43;;;13.27;;
16735;SDS011;17990;49.548;9.730;2022-10-03T00:37:39;28.03;;;11.57;;
16735;SDS011;17990;49.548;9.730;2022-10-03T00:43:47;27.63;;;12.20;;
16735;SDS011;17990;49.548;9.730;2022-10-03T00:46:56;30.60;;;13.63;;
16735;SDS011;17990;49.548;9.730;2022-10-03T00:53:12;33.03;;;13.03;;
16735;SDS011;17990;49.548;9.730;2022-10-03T00:55:54;33.23;;;13.40;;
16735;SDS011;17990;49.548;9.730;2022-10-03T00:58:44;33.57;;;13.33;;
16735;SDS011;17990;49.548;9.730;2022-10-03T01:01:24;31.97;;;13.17;;
16735;SDS011;17990;49.548;9.730;2022-10-03T01:04:10;51.80;;;21.17;;
16735;SDS011;17990;49.548;9.730;2022-10-03T01:07:10;63.97;;;24.53;;
16735;SDS011;17990;49.548;9.730;2022-10-03T01:09:59;40.87;;;15.67;;
16735;SDS011;17990;49.548;9.730;2022-10-03T01:15:37;36.63;;;14.83;;
16735;SDS011;17990;49.548;9.730;2022-10-03T01:18:16;35.63;;;13.57;;
16735;SDS011;17990;49.548;9.730;2022-10-03T01:20:57;39.87;;;16.40;;
16735;SDS011;17990;49.548;9.730;2022-10-03T01:23:52;38.03;;;14.73;;
16735;SDS011;17990;49.548;9.730;2022-10-03T01:26:53;31.53;;;12.70;;
16735;SDS011;17990;49.548;9.730;2022-10-03T01:29:27;32.80;;;13.40;;
16735;SDS011;17990;49.548;9.730;2022-10-03T01:32:25;41.63;;;16.50;;
16735;SDS011;17990;49.548;9.730;2022-10-03T01:34:59;37.47;;;14.53;;
16735;SDS011;17990;49.548;9.730;2022-10-03T01:37:42;34.37;;;14.07;;
16735;SDS011;17990;49.548;9.730;2022-10-03T01:40:21;36.63;;;13.97;;
16735;SDS011;17990;49.548;9.730;2022-10-03T01:43:03;38.30;;;15.53;;
16735;SDS011;17990;49.548;9.730;2022-10-03T01:45:46;35.00;;;14.07;;
16735;SDS011;17990;49.548;9.730;2022-10-03T01:48:25;33.37;;;12.73;;
16735;SDS011;17990;49.548;9.730;2022-10-03T01:51:02;31.00;;;13.10;;
16735;SDS011;17990;49.548;9.730;2022-10-03T01:53:42;46.87;;;15.67;;
16735;SDS011;17990;49.548;9.730;2022-10-03T01:56:25;50.70;;;16.67;;
16735;SDS011;17990;49.548;9.730;2022-10-03T01:59:00;57.57;;;17.87;;
16735;SDS011;17990;49.548;9.730;2022-10-03T02:01:35;114.17;;;23.07;;
16735;SDS011;17990;49.548;9.730;2022-10-03T02:04:14;164.20;;;21.63;;
16735;SDS011;17990;49.548;9.730;2022-10-03T02:06:50;109.20;;;18.07;;
16735;SDS011;17990;49.548;9.730;2022-10-03T02:09:29;152.97;;;20.80;;
16735;SDS011;17990;49.548;9.730;2022-10-03T02:12:08;202.10;;;21.57;;
16735;SDS011;17990;49.548;9.730;2022-10-03T02:14:47;231.27;;;22.63;;
16735;SDS011;17990;49.548;9.730;2022-10-03T02:17:22;224.17;;;20.73;;
16735;SDS011;17990;49.548;9.730;2022-10-03T02:20:00;171.30;;;19.83;;
16735;SDS011;17990;49.548;9.730;2022-10-03T02:22:40;136.40;;;20.63;;
16735;SDS011;17990;49.548;9.730;2022-10-03T02:25:14;165.10;;;19.73;;
16735;SDS011;17990;49.548;9.730;2022-10-03T02:28:09;123.13;;;16.97;;
16735;SDS011;17990;49.548;9.730;2022-10-03T02:34:27;145.50;;;17.53;;
16735;SDS011;17990;49.548;9.730;2022-10-03T02:37:45;190.63;;;19.50;;
16735;SDS011;17990;49.548;9.730;2022-10-03T02:43:52;147.00;;;16.63;;
16735;SDS011;17990;49.548;9.730;2022-10-03T02:50:10;132.73;;;16.30;;
16735;SDS011;17990;49.548;9.730;2022-10-03T02:53:06;119.13;;;14.27;;
16735;SDS011;17990;49.548;9.730;2022-10-03T03:02:34;129.10;;;14.07;;
16735;SDS011;17990;49.548;9.730;2022-10-03T03:12:18;130.57;;;14.83;;
16735;SDS011;17990;49.548;9.730;2022-10-03T03:18:50;126.53;;;16.00;;
16735;SDS011;17990;49.548;9.730;2022-10-03T03:21:59;72.90;;;12.40;;
16735;SDS011;17990;49.548;9.730;2022-10-03T03:24:47;119.00;;;14.60;;
16735;SDS011;17990;49.548;9.730;2022-10-03T03:27:33;105.20;;;14.03;;
16735;SDS011;17990;49.548;9.730;2022-10-03T03:30:16;96.37;;;13.20;;
16735;SDS011;17990;49.548;9.730;2022-10-03T03:32:58;116.57;;;14.40;;
16735;SDS011;17990;49.548;9.730;2022-10-03T03:35:39;102.70;;;13.90;;
16735;SDS011;17990;49.548;9.730;2022-10-03T03:38:24;81.73;;;12.53;;
16735;SDS011;17990;49.548;9.730;2022-10-03T03:41:06;75.30;;;13.30;;
16735;SDS011;17990;49.548;9.730;2022-10-03T03:43:52;58.13;;;11.83;;
16735;SDS011;17990;49.548;9.730;2022-10-03T03:46:45;71.20;;;11.70;;
16735;SDS011;17990;49.548;9.730;2022-10-03T03:49:30;72.10;;;13.47;;
16735;SDS011;17990;49.548;9.730;2022-10-03T03:52:17;80.03;;;12.10;;
16735;SDS011;17990;49.548;9.730;2022-10-03T03:55:08;78.73;;;12.23;;
16735;SDS011;17990;49.548;9.730;2022-10-03T03:57:58;93.13;;;13.33;;
16735;SDS011;17990;49.548;9.730;2022-10-03T04:00:39;73.33;;;12.03;;
16735;SDS011;17990;49.548;9.730;2022-10-03T04:03:24;71.00;;;11.63;;
16735;SDS011;17990;49.548;9.730;2022-10-03T04:06:03;94.23;;;11.53;;
16735;SDS011;17990;49.548;9.730;2022-10-03T04:08:52;50.37;;;10.10;;
16735;SDS011;17990;49.548;9.730;2022-10-03T04:11:45;65.23;;;11.47;;
16735;SDS011;17990;49.548;9.730;2022-10-03T04:14:32;85.70;;;11.73;;
16735;SDS011;17990;49.548;9.730;2022-10-03T04:17:30;100.10;;;13.37;;
16735;SDS011;17990;49.548;9.730;2022-10-03T04:20:43;112.80;;;12.83;;
16735;SDS011;17990;49.548;9.730;2022-10-03T04:23:35;87.43;;;11.97;;
16735;SDS011;17990;49.548;9.730;2022-10-03T04:26:25;97.17;;;12.10;;
16735;SDS011;17990;49.548;9.730;2022-10-03T04:29:14;63.50;;;11.53;;
16735;SDS011;17990;49.548;9.730;2022-10-03T04:32:10;95.00;;;11.43;;
16735;SDS011;17990;49.548;9.730;2022-10-03T04:34:54;91.90;;;11.40;;
16735;SDS011;17990;49.548;9.730;2022-10-03T04:37:40;80.73;;;10.33;;
16735;SDS011;17990;49.548;9.730;2022-10-03T04:40:20;87.87;;;13.20;;
16735;SDS011;17990;49.548;9.730;2022-10-03T04:43:02;75.20;;;10.67;;
16735;SDS011;17990;49.548;9.730;2022-10-03T04:45:45;109.27;;;12.47;;
16735;SDS011;17990;49.548;9.730;2022-10-03T04:48:27;60.30;;;10.27;;
16735;SDS011;17990;49.548;9.730;2022-10-03T04:51:05;87.13;;;10.83;;
16735;SDS011;17990;49.548;9.730;2022-10-03T04:53:48;101.33;;;12.93;;
16735;SDS011;17990;49.548;9.730;2022-10-03T04:59:24;103.90;;;11.87;;
16735;SDS011;17990;49.548;9.730;2022-10-03T05:02:09;108.27;;;10.47;;
16735;SDS011;17990;49.548;9.730;2022-10-03T05:04:53;109.00;;;11.10;;
16735;SDS011;17990;49.548;9.730;2022-10-03T05:07:37;72.23;;;10.70;;
16735;SDS011;17990;49.548;9.730;2022-10-03T05:10:19;63.97;;;10.10;;
16735;SDS011;17990;49.548;9.730;2022-10-03T05:12:57;74.60;;;11.10;;
16735;SDS011;17990;49.548;9.730;2022-10-03T05:15:33;78.37;;;11.27;;
16735;SDS011;17990;49.548;9.730;2022-10-03T05:18:12;83.30;;;11.20;;
16735;SDS011;17990;49.548;9.730;2022-10-03T05:20:46;66.47;;;10.20;;
16735;SDS011;17990;49.548;9.730;2022-10-03T05:23:27;83.73;;;11.00;;
16735;SDS011;17990;49.548;9.730;2022-10-03T05:26:10;81.80;;;9.87;;
16735;SDS011;17990;49.548;9.730;2022-10-03T05:28:48;72.63;;;9.10;;
16735;SDS011;17990;49.548;9.730;2022-10-03T05:31:33;52.80;;;9.70;;
16735;SDS011;17990;49.548;9.730;2022-10-03T05:34:15;86.20;;;10.17;;
16735;SDS011;17990;49.548;9.730;2022-10-03T05:37:01;76.30;;;12.03;;
16735;SDS011;17990;49.548;9.730;2022-10-03T05:40:00;55.90;;;9.80;;
16735;SDS011;17990;49.548;9.730;2022-10-03T05:42:34;59.97;;;10.17;;
16735;SDS011;17990;49.548;9.730;2022-10-03T05:45:20;80.23;;;10.13;;
16735;SDS011;17990;49.548;9.730;2022-10-03T05:47:59;78.20;;;10.43;;
16735;SDS011;17990;49.548;9.730;2022-10-03T05:53:52;70.20;;;9.17;;
16735;SDS011;17990;49.548;9.730;2022-10-03T05:57:04;66.57;;;8.43;;
16735;SDS011;17990;49.548;9.730;2022-10-03T06:00:03;58.60;;;8.90;;
16735;SDS011;17990;49.548;9.730;2022-10-03T06:02:44;98.93;;;10.23;;
16735;SDS011;17990;49.548;9.730;2022-10-03T06:05:43;76.33;;;9.87;;
16735;SDS011;17990;49.548;9.730;2022-10-03T06:08:50;50.47;;;7.50;;
16735;SDS011;17990;49.548;9.730;2022-10-03T06:12:05;79.43;;;8.27;;
16735;SDS011;17990;49.548;9.730;2022-10-03T06:20:59;75.83;;;11.77;;
16735;SDS011;17990;49.548;9.730;2022-10-03T06:24:08;45.47;;;7.20;;
16735;SDS011;17990;49.548;9.730;2022-10-03T06:30:18;70.97;;;8.33;;
16735;SDS011;17990;49.548;9.730;2022-10-03T06:36:13;42.97;;;5.83;;
16735;SDS011;17990;49.548;9.730;2022-10-03T06:46:01;46.00;;;9.00;;
16735;SDS011;17990;49.548;9.730;2022-10-03T06:49:11;66.70;;;11.60;;
16735;SDS011;17990;49.548;9.730;2022-10-03T06:52:10;76.90;;;6.60;;
16735;SDS011;17990;49.548;9.730;2022-10-03T06:55:12;55.37;;;6.30;;
16735;SDS011;17990;49.548;9.730;2022-10-03T07:17:44;12.70;;;5.80;;
16735;SDS011;17990;49.548;9.730;2022-10-03T07:20:54;18.23;;;4.93;;
16735;SDS011;17990;49.548;9.730;2022-10-03T07:24:14;20.80;;;5.43;;
16735;SDS011;17990;49.548;9.730;2022-10-03T07:27:08;10.93;;;4.57;;
16735;SDS011;17990;49.548;9.730;2022-10-03T07:30:05;24.73;;;5.00;;
16735;SDS011;17990;49.548;9.730;2022-10-03T07:32:53;13.33;;;5.37;;
16735;SDS011;17990;49.548;9.730;2022-10-03T07:36:10;9.03;;;3.83;;
16735;SDS011;17990;49.548;9.730;2022-10-03T07:39:33;4.93;;;3.43;;
16735;SDS011;17990;49.548;9.730;2022-10-03T07:42:40;5.17;;;3.67;;
16735;SDS011;17990;49.548;9.730;2022-10-03T07:45:28;5.23;;;3.50;;
16735;SDS011;17990;49.548;9.730;2022-10-03T07:48:12;9.17;;;3.87;;
16735;SDS011;17990;49.548;9.730;2022-10-03T07:51:25;6.00;;;4.07;;
16735;SDS011;17990;49.548;9.730;2022-10-03T07:54:18;9.10;;;5.87;;
16735;SDS011;17990;49.548;9.730;2022-10-03T07:57:19;7.90;;;5.07;;
16735;SDS011;17990;49.548;9.730;2022-10-03T08:00:04;14.27;;;4.70;;
16735;SDS011;17990;49.548;9.730;2022-10-03T08:06:17;5.07;;;4.33;;
16735;SDS011;17990;49.548;9.730;2022-10-03T08:09:07;7.47;;;4.83;;
16735;SDS011;17990;49.548;9.730;2022-10-03T08:12:07;6.93;;;5.40;;
16735;SDS011;17990;49.548;9.730;2022-10-03T08:15:01;6.33;;;4.83;;
16735;SDS011;17990;49.548;9.730;2022-10-03T08:17:49;6.00;;;4.80;;
16735;SDS011;17990;49.548;9.730;2022-10-03T08:20:55;6.60;;;5.43;;
16735;SDS011;17990;49.548;9.730;2022-10-03T08:23:29;6.63;;;4.70;;
16735;SDS011;17990;49.548;9.730;2022-10-03T08:30:16;5.53;;;4.50;;
16735;SDS011;17990;49.548;9.730;2022-10-03T08:32:53;4.80;;;4.00;;
16735;SDS011;17990;49.548;9.730;2022-10-03T08:35:30;8.27;;;6.10;;
16735;SDS011;17990;49.548;9.730;2022-10-03T08:38:27;7.47;;;4.57;;
16735;SDS011;17990;49.548;9.730;2022-10-03T08:41:24;6.90;;;4.07;;
16735;SDS011;17990;49.548;9.730;2022-10-03T08:44:55;4.87;;;3.87;;
16735;SDS011;17990;49.548;9.730;2022-10-03T08:51:17;8.40;;;4.30;;
16735;SDS011;17990;49.548;9.730;2022-10-03T08:54:23;8.00;;;4.70;;
16735;SDS011;17990;49.548;9.730;2022-10-03T08:57:17;8.80;;;4.40;;
16735;SDS011;17990;49.548;9.730;2022-10-03T09:00:07;6.30;;;4.07;;
16735;SDS011;17990;49.548;9.730;2022-10-03T09:19:06;7.63;;;3.20;;
16735;SDS011;17990;49.548;9.730;2022-10-03T09:22:01;5.17;;;2.70;;
16735;SDS011;17990;49.548;9.730;2022-10-03T09:27:55;9.00;;;2.80;;
16735;SDS011;17990;49.548;9.730;2022-10-03T09:31:08;6.37;;;2.47;;
16735;SDS011;17990;49.548;9.730;2022-10-03T09:43:53;9.70;;;3.00;;
16735;SDS011;17990;49.548;9.730;2022-10-03T09:47:08;8.13;;;1.87;;
16735;SDS011;17990;49.548;9.730;2022-10-03T09:56:53;6.47;;;1.90;;
16735;SDS011;17990;49.548;9.730;2022-10-03T10:08:40;10.87;;;5.57;;
16735;SDS011;17990;49.548;9.730;2022-10-03T10:11:54;5.73;;;1.40;;
16735;SDS011;17990;49.548;9.730;2022-10-03T10:14:56;5.90;;;1.40;;
16735;SDS011;17990;49.548;9.730;2022-10-03T10:17:47;6.73;;;1.50;;
16735;SDS011;17990;49.548;9.730;2022-10-03T10:21:20;7.03;;;1.90;;
16735;SDS011;17990;49.548;9.730;2022-10-03T10:24:48;6.57;;;1.97;;
16735;SDS011;17990;49.548;9.730;2022-10-03T10:31:31;5.33;;;1.73;;
16735;SDS011;17990;49.548;9.730;2022-10-03T10:34:49;5.83;;;1.77;;
16735;SDS011;17990;49.548;9.730;2022-10-03T10:37:53;7.20;;;3.27;;
16735;SDS011;17990;49.548;9.730;2022-10-03T10:57:07;4.80;;;1.67;;
16735;SDS011;17990;49.548;9.730;2022-10-03T11:00:03;7.67;;;1.80;;
16735;SDS011;17990;49.548;9.730;2022-10-03T11:09:33;3.87;;;1.30;;
16735;SDS011;17990;49.548;9.730;2022-10-03T11:19:32;4.70;;;1.80;;
16735;SDS011;17990;49.548;9.730;2022-10-03T11:22:55;4.50;;;1.53;;
16735;SDS011;17990;49.548;9.730;2022-10-03T11:29:46;5.53;;;1.30;;
16735;SDS011;17990;49.548;9.730;2022-10-03T11:36:17;4.23;;;1.30;;
16735;SDS011;17990;49.548;9.730;2022-10-03T11:39:34;3.23;;;1.10;;
16735;SDS011;17990;49.548;9.730;2022-10-03T11:42:12;3.83;;;1.40;;
16735;SDS011;17990;49.548;9.730;2022-10-03T11:44:52;4.63;;;1.40;;
16735;SDS011;17990;49.548;9.730;2022-10-03T11:50:26;4.47;;;1.13;;
16735;SDS011;17990;49.548;9.730;2022-10-03T11:56:17;5.37;;;1.00;;
16735;SDS011;17990;49.548;9.730;2022-10-03T11:59:08;3.50;;;1.07;;
16735;SDS011;17990;49.548;9.730;2022-10-03T12:02:16;7.17;;;1.47;;
16735;SDS011;17990;49.548;9.730;2022-10-03T12:05:11;2.90;;;1.33;;
16735;SDS011;17990;49.548;9.730;2022-10-03T12:07:49;4.10;;;1.20;;
16735;SDS011;17990;49.548;9.730;2022-10-03T12:10:48;4.33;;;1.30;;
16735;SDS011;17990;49.548;9.730;2022-10-03T12:13:27;4.63;;;1.03;;
16735;SDS011;17990;49.548;9.730;2022-10-03T12:16:02;2.77;;;1.10;;
16735;SDS011;17990;49.548;9.730;2022-10-03T12:18:49;3.53;;;1.13;;
16735;SDS011;17990;49.548;9.730;2022-10-03T12:21:23;2.27;;;0.97;;
16735;SDS011;17990;49.548;9.730;2022-10-03T12:24:01;3.60;;;1.10;;
16735;SDS011;17990;49.548;9.730;2022-10-03T12:26:47;4.37;;;1.30;;
16735;SDS011;17990;49.548;9.730;2022-10-03T12:29:23;3.27;;;1.43;;
16735;SDS011;17990;49.548;9.730;2022-10-03T12:32:01;3.93;;;1.23;;
16735;SDS011;17990;49.548;9.730;2022-10-03T12:34:43;4.87;;;1.43;;
16735;SDS011;17990;49.548;9.730;2022-10-03T12:37:32;4.10;;;1.20;;
16735;SDS011;17990;49.548;9.730;2022-10-03T12:40:12;3.43;;;1.13;;
16735;SDS011;17990;49.548;9.730;2022-10-03T12:42:46;4.07;;;1.43;;
16735;SDS011;17990;49.548;9.730;2022-10-03T12:45:23;5.57;;;1.10;;
16735;SDS011;17990;49.548;9.730;2022-10-03T12:48:03;3.20;;;1.20;;
16735;SDS011;17990;49.548;9.730;2022-10-03T12:50:59;3.70;;;1.10;;
16735;SDS011;17990;49.548;9.730;2022-10-03T12:53:39;2.70;;;1.10;;
16735;SDS011;17990;49.548;9.730;2022-10-03T12:56:20;3.67;;;0.97;;
16735;SDS011;17990;49.548;9.730;2022-10-03T12:59:00;3.70;;;0.83;;
16735;SDS011;17990;49.548;9.730;2022-10-03T13:01:44;4.53;;;1.37;;
16735;SDS011;17990;49.548;9.730;2022-10-03T13:04:30;2.03;;;1.13;;
16735;SDS011;17990;49.548;9.730;2022-10-03T13:07:15;2.83;;;1.00;;
16735;SDS011;17990;49.548;9.730;2022-10-03T13:09:55;4.67;;;1.13;;
16735;SDS011;17990;49.548;9.730;2022-10-03T13:12:33;4.53;;;1.20;;
16735;SDS011;17990;49.548;9.730;2022-10-03T13:18:19;4.67;;;1.10;;
16735;SDS011;17990;49.548;9.730;2022-10-03T13:21:00;6.33;;;1.63;;
16735;SDS011;17990;49.548;9.730;2022-10-03T13:23:35;4.43;;;1.50;;
16735;SDS011;17990;49.548;9.730;2022-10-03T13:26:13;4.40;;;1.30;;
16735;SDS011;17990;49.548;9.730;2022-10-03T13:31:44;5.37;;;1.53;;
16735;SDS011;17990;49.548;9.730;2022-10-03T13:34:29;4.60;;;1.27;;
16735;SDS011;17990;49.548;9.730;2022-10-03T13:37:03;5.70;;;1.43;;
16735;SDS011;17990;49.548;9.730;2022-10-03T13:39:40;4.27;;;1.80;;
16735;SDS011;17990;49.548;9.730;2022-10-03T13:42:14;4.63;;;1.33;;
16735;SDS011;17990;49.548;9.730;2022-10-03T13:44:46;4.67;;;2.13;;
16735;SDS011;17990;49.548;9.730;2022-10-03T13:50:12;4.30;;;1.33;;
16735;SDS011;17990;49.548;9.730;2022-10-03T13:52:44;3.00;;;1.00;;
16735;SDS011;17990;49.548;9.730;2022-10-03T13:55:27;2.33;;;1.20;;
16735;SDS011;17990;49.548;9.730;2022-10-03T13:58:09;5.90;;;1.00;;
16735;SDS011;17990;49.548;9.730;2022-10-03T14:07:06;3.70;;;1.70;;
16735;SDS011;17990;49.548;9.730;2022-10-03T14:09:46;1.63;;;1.10;;
16735;SDS011;17990;49.548;9.730;2022-10-03T14:12:47;3.73;;;1.50;;
16735;SDS011;17990;49.548;9.730;2022-10-03T14:15:32;3.37;;;1.30;;
16735;SDS011;17990;49.548;9.730;2022-10-03T14:18:17;2.53;;;1.10;;
16735;SDS011;17990;49.548;9.730;2022-10-03T14:21:15;2.30;;;1.10;;
16735;SDS011;17990;49.548;9.730;2022-10-03T14:24:05;3.17;;;1.40;;
16735;SDS011;17990;49.548;9.730;2022-10-03T14:26:46;2.50;;;1.30;;
16735;SDS011;17990;49.548;9.730;2022-10-03T14:29:24;2.90;;;1.30;;
16735;SDS011;17990;49.548;9.730;2022-10-03T14:32:00;6.17;;;1.50;;
16735;SDS011;17990;49.548;9.730;2022-10-03T14:34:36;4.70;;;2.10;;
16735;SDS011;17990;49.548;9.730;2022-10-03T14:37:17;4.50;;;1.50;;
16735;SDS011;17990;49.548;9.730;2022-10-03T14:42:53;4.50;;;1.80;;
16735;SDS011;17990;49.548;9.730;2022-10-03T14:45:42;2.97;;;1.67;;
16735;SDS011;17990;49.548;9.730;2022-10-03T14:48:13;4.17;;;1.10;;
16735;SDS011;17990;49.548;9.730;2022-10-03T14:50:44;2.90;;;1.37;;
16735;SDS011;17990;49.548;9.730;2022-10-03T14:53:17;3.27;;;1.30;;
16735;SDS011;17990;49.548;9.730;2022-10-03T14:55:52;3.03;;;1.60;;
16735;SDS011;17990;49.548;9.730;2022-10-03T14:58:25;2.37;;;1.23;;
16735;SDS011;17990;49.548;9.730;2022-10-03T15:01:02;4.13;;;2.13;;
16735;SDS011;17990;49.548;9.730;2022-10-03T15:03:37;4.67;;;1.90;;
16735;SDS011;17990;49.548;9.730;2022-10-03T15:06:30;7.10;;;1.90;;
16735;SDS011;17990;49.548;9.730;2022-10-03T15:09:18;4.23;;;1.43;;
16735;SDS011;17990;49.548;9.730;2022-10-03T15:11:53;4.37;;;1.87;;
16735;SDS011;17990;49.548;9.730;2022-10-03T15:14:27;3.63;;;1.90;;
16735;SDS011;17990;49.548;9.730;2022-10-03T15:17:00;4.10;;;1.70;;
16735;SDS011;17990;49.548;9.730;2022-10-03T15:19:32;4.43;;;1.87;;
16735;SDS011;17990;49.548;9.730;2022-10-03T15:22:10;2.30;;;1.17;;
16735;SDS011;17990;49.548;9.730;2022-10-03T15:24:49;5.03;;;1.60;;
16735;SDS011;17990;49.548;9.730;2022-10-03T15:27:19;3.50;;;1.77;;
16735;SDS011;17990;49.548;9.730;2022-10-03T15:29:49;3.20;;;1.60;;
16735;SDS011;17990;49.548;9.730;2022-10-03T15:32:23;3.87;;;1.60;;
16735;SDS011;17990;49.548;9.730;2022-10-03T15:34:56;5.43;;;1.90;;
16735;SDS011;17990;49.548;9.730;2022-10-03T15:37:28;5.90;;;2.50;;
16735;SDS011;17990;49.548;9.730;2022-10-03T15:40:00;6.53;;;1.93;;
16735;SDS011;17990;49.548;9.730;2022-10-03T15:42:40;6.30;;;1.53;;
16735;SDS011;17990;49.548;9.730;2022-10-03T15:45:18;5.37;;;1.73;;
16735;SDS011;17990;49.548;9.730;2022-10-03T15:47:53;5.97;;;1.60;;
16735;SDS011;17990;49.548;9.730;2022-10-03T15:50:22;3.53;;;1.67;;
16735;SDS011;17990;49.548;9.730;2022-10-03T15:52:53;3.60;;;1.77;;
16735;SDS011;17990;49.548;9.730;2022-10-03T15:55:24;5.43;;;1.97;;
16735;SDS011;17990;49.548;9.730;2022-10-03T15:57:59;5.43;;;2.30;;
16735;SDS011;17990;49.548;9.730;2022-10-03T16:00:34;5.97;;;2.37;;
16735;SDS011;17990;49.548;9.730;2022-10-03T16:03:07;5.23;;;2.60;;
16735;SDS011;17990;49.548;9.730;2022-10-03T16:05:42;4.63;;;2.27;;
16735;SDS011;17990;49.548;9.730;2022-10-03T16:08:21;4.53;;;1.53;;
16735;SDS011;17990;49.548;9.730;2022-10-03T16:10:56;6.17;;;1.90;;
16735;SDS011;17990;49.548;9.730;2022-10-03T16:13:33;5.50;;;1.77;;
16735;SDS011;17990;49.548;9.730;2022-10-03T16:16:07;5.93;;;2.37;;
16735;SDS011;17990;49.548;9.730;2022-10-03T16:18:52;6.33;;;2.80;;
16735;SDS011;17990;49.548;9.730;2022-10-03T16:21:35;5.80;;;3.33;;
16735;SDS011;17990;49.548;9.730;2022-10-03T16:24:15;8.97;;;4.80;;
16735;SDS011;17990;49.548;9.730;2022-10-03T16:26:56;8.43;;;3.03;;
16735;SDS011;17990;49.548;9.730;2022-10-03T16:29:33;7.13;;;2.80;;
16735;SDS011;17990;49.548;9.730;2022-10-03T16:32:03;4.10;;;2.27;;
16735;SDS011;17990;49.548;9.730;2022-10-03T16:34:35;5.33;;;2.70;;
16735;SDS011;17990;49.548;9.730;2022-10-03T16:37:14;7.90;;;3.90;;
16735;SDS011;17990;49.548;9.730;2022-10-03T16:39:45;8.13;;;4.30;;
16735;SDS011;17990;49.548;9.730;2022-10-03T16:42:21;7.80;;;3.80;;
16735;SDS011;17990;49.548;9.730;2022-10-03T16:44:53;7.37;;;4.30;;
16735;SDS011;17990;49.548;9.730;2022-10-03T16:47:27;8.90;;;4.90;;
16735;SDS011;17990;49.548;9.730;2022-10-03T16:50:00;6.37;;;4.20;;
16735;SDS011;17990;49.548;9.730;2022-10-03T16:52:47;9.30;;;4.13;;
16735;SDS011;17990;49.548;9.730;2022-10-03T16:55:17;5.67;;;2.97;;
16735;SDS011;17990;49.548;9.730;2022-10-03T16:57:48;8.93;;;3.40;;
16735;SDS011;17990;49.548;9.730;2022-10-03T17:00:22;7.10;;;3.50;;
16735;SDS011;17990;49.548;9.730;2022-10-03T17:02:56;10.97;;;4.63;;
16735;SDS011;17990;49.548;9.730;2022-10-03T17:05:24;7.40;;;3.63;;
16735;SDS011;17990;49.548;9.730;2022-10-03T17:07:52;10.47;;;4.60;;
16735;SDS011;17990;49.548;9.730;2022-10-03T17:10:32;6.17;;;2.80;;
16735;SDS011;17990;49.548;9.730;2022-10-03T17:13:04;16.90;;;7.20;;
16735;SDS011;17990;49.548;9.730;2022-10-03T17:15:39;7.33;;;3.60;;
16735;SDS011;17990;49.548;9.730;2022-10-03T17:18:17;10.27;;;6.20;;
16735;SDS011;17990;49.548;9.730;2022-10-03T17:20:52;26.00;;;13.20;;
16735;SDS011;17990;49.548;9.730;2022-10-03T17:23:27;8.53;;;4.63;;
16735;SDS011;17990;49.548;9.730;2022-10-03T17:26:01;8.17;;;5.30;;
16735;SDS011;17990;49.548;9.730;2022-10-03T17:28:36;10.37;;;5.30;;
16735;SDS011;17990;49.548;9.730;2022-10-03T17:31:21;11.67;;;5.80;;
16735;SDS011;17990;49.548;9.730;2022-10-03T17:33:58;22.40;;;9.97;;
16735;SDS011;17990;49.548;9.730;2022-10-03T17:39:41;11.67;;;7.50;;
16735;SDS011;17990;49.548;9.730;2022-10-03T17:42:27;14.27;;;6.77;;
16735;SDS011;17990;49.548;9.730;2022-10-03T17:45:09;10.90;;;5.20;;
16735;SDS011;17990;49.548;9.730;2022-10-03T17:47:51;21.10;;;9.73;;
16735;SDS011;17990;49.548;9.730;2022-10-03T17:50:23;9.53;;;4.83;;
16735;SDS011;17990;49.548;9.730;2022-10-03T17:52:56;13.20;;;4.80;;
16735;SDS011;17990;49.548;9.730;2022-10-03T17:55:26;122.37;;;58.73;;
16735;SDS011;17990;49.548;9.730;2022-10-03T17:57:57;52.60;;;31.13;;
16735;SDS011;17990;49.548;9.730;2022-10-03T18:00:30;16.77;;;6.83;;
16735;SDS011;17990;49.548;9.730;2022-10-03T18:03:03;10.90;;;6.17;;
16735;SDS011;17990;49.548;9.730;2022-10-03T18:05:34;10.17;;;6.20;;
16735;SDS011;17990;49.548;9.730;2022-10-03T18:08:11;9.93;;;5.53;;
16735;SDS011;17990;49.548;9.730;2022-10-03T18:10:45;7.73;;;4.80;;
16735;SDS011;17990;49.548;9.730;2022-10-03T18:13:15;6.57;;;4.10;;
16735;SDS011;17990;49.548;9.730;2022-10-03T18:18:51;6.63;;;4.07;;
16735;SDS011;17990;49.548;9.730;2022-10-03T18:21:36;9.43;;;4.43;;
16735;SDS011;17990;49.548;9.730;2022-10-03T18:27:28;13.87;;;6.53;;
16735;SDS011;17990;49.548;9.730;2022-10-03T18:30:17;14.53;;;6.10;;
16735;SDS011;17990;49.548;9.730;2022-10-03T18:32:47;18.07;;;8.63;;
16735;SDS011;17990;49.548;9.730;2022-10-03T18:35:16;19.80;;;9.67;;
16735;SDS011;17990;49.548;9.730;2022-10-03T18:37:52;14.80;;;8.27;;
16735;SDS011;17990;49.548;9.730;2022-10-03T18:40:33;11.40;;;5.90;;
16735;SDS011;17990;49.548;9.730;2022-10-03T18:43:14;14.40;;;6.23;;
16735;SDS011;17990;49.548;9.730;2022-10-03T18:45:59;16.10;;;7.40;;
16735;SDS011;17990;49.548;9.730;2022-10-03T18:48:42;15.00;;;7.27;;
16735;SDS011;17990;49.548;9.730;2022-10-03T18:51:21;16.47;;;7.03;;
16735;SDS011;17990;49.548;9.730;2022-10-03T18:53:57;11.27;;;6.00;;
16735;SDS011;17990;49.548;9.730;2022-10-03T18:56:31;11.90;;;5.40;;
16735;SDS011;17990;49.548;9.730;2022-10-03T18:59:05;10.63;;;5.07;;
16735;SDS011;17990;49.548;9.730;2022-10-03T19:01:49;9.97;;;4.77;;
16735;SDS011;17990;49.548;9.730;2022-10-03T19:07:10;9.73;;;4.70;;
16735;SDS011;17990;49.548;9.730;2022-10-03T19:09:59;9.47;;;4.93;;
16735;SDS011;17990;49.548;9.730;2022-10-03T19:12:56;8.13;;;4.83;;
16735;SDS011;17990;49.548;9.730;2022-10-03T19:15:35;8.43;;;4.87;;
16735;SDS011;17990;49.548;9.730;2022-10-03T19:18:54;7.97;;;5.93;;
16735;SDS011;17990;49.548;9.730;2022-10-03T19:21:31;10.00;;;5.00;;
16735;SDS011;17990;49.548;9.730;2022-10-03T19:24:03;9.33;;;4.50;;
16735;SDS011;17990;49.548;9.730;2022-10-03T19:26:36;7.17;;;4.60;;
16735;SDS011;17990;49.548;9.730;2022-10-03T19:29:11;8.47;;;5.10;;
16735;SDS011;17990;49.548;9.730;2022-10-03T19:31:43;13.00;;;6.20;;
16735;SDS011;17990;49.548;9.730;2022-10-03T19:34:19;14.27;;;7.13;;
16735;SDS011;17990;49.548;9.730;2022-10-03T19:36:53;14.50;;;7.00;;
16735;SDS011;17990;49.548;9.730;2022-10-03T19:39:22;12.87;;;5.40;;
16735;SDS011;17990;49.548;9.730;2022-10-03T19:41:53;11.30;;;5.67;;
16735;SDS011;17990;49.548;9.730;2022-10-03T19:44:27;14.37;;;6.93;;
16735;SDS011;17990;49.548;9.730;2022-10-03T19:47:00;11.03;;;5.70;;
16735;SDS011;17990;49.548;9.730;2022-10-03T19:49:38;10.93;;;5.17;;
16735;SDS011;17990;49.548;9.730;2022-10-03T19:52:20;11.07;;;5.03;;
16735;SDS011;17990;49.548;9.730;2022-10-03T19:54:53;13.30;;;5.33;;